createdAt,value
2024-05-09T00:00:18.225Z,78.08
2024-05-09T00:00:53.891Z,78.75
2024-05-09T00:01:25.482Z,79.00
2024-05-09T00:01:56.971Z,78.47
2024-05-09T00:02:28.563Z,78.44
2024-05-09T00:03:00.108Z,78.01
2024-05-09T00:03:31.592Z,78.06
2024-05-09T00:04:03.388Z,78.34
2024-05-09T00:04:34.976Z,77.45
2024-05-09T00:05:09.209Z,76.93
2024-05-09T00:05:41.822Z,76.43
2024-05-09T00:06:13.512Z,77.11
2024-05-09T00:06:44.937Z,77.16
2024-05-09T00:07:16.308Z,77.28
2024-05-09T00:07:47.730Z,76.49
2024-05-09T00:08:19.230Z,76.67
2024-05-09T00:08:50.652Z,76.79
2024-05-09T00:09:22.036Z,77.00
2024-05-09T00:09:53.118Z,76.77
2024-05-09T00:10:33.192Z,76.54
2024-05-09T00:11:08.251Z,76.73
2024-05-09T00:11:39.756Z,76.98
2024-05-09T00:12:11.311Z,76.66
2024-05-09T00:12:42.709Z,76.97
2024-05-09T00:13:14.092Z,77.17
2024-05-09T00:13:46.218Z,77.40
2024-05-09T00:14:17.728Z,76.58
2024-05-09T00:14:49.099Z,76.78
2024-05-09T00:15:20.502Z,77.33
2024-05-09T00:15:51.919Z,77.24
2024-05-09T00:16:23.285Z,77.45
2024-05-09T00:16:55.142Z,77.09
2024-05-09T00:17:26.803Z,77.00
2024-05-09T00:17:58.269Z,76.99
2024-05-09T00:18:32.212Z,77.00
2024-05-09T00:19:03.818Z,76.53
2024-05-09T00:19:35.362Z,77.07
2024-05-09T00:20:14.130Z,76.75
2024-05-09T00:20:51.790Z,76.09
2024-05-09T00:21:23.277Z,76.71
2024-05-09T00:21:54.802Z,75.94
2024-05-09T00:22:26.154Z,76.02
2024-05-09T00:22:57.568Z,76.51
2024-05-09T00:23:29.119Z,76.65
2024-05-09T00:24:00.362Z,76.13
2024-05-09T00:24:31.784Z,76.75
2024-05-09T00:25:03.269Z,76.58
2024-05-09T00:25:35.043Z,76.43
2024-05-09T00:26:06.805Z,76.86
2024-05-09T00:26:38.248Z,76.24
2024-05-09T00:27:12.684Z,76.65
2024-05-09T00:27:44.597Z,75.85
2024-05-09T00:28:15.944Z,75.77
2024-05-09T00:28:47.385Z,75.88
2024-05-09T00:29:18.846Z,76.23
2024-05-09T00:29:50.247Z,76.91
2024-05-09T00:30:31.031Z,76.86
2024-05-09T00:31:05.762Z,76.57
2024-05-09T00:31:37.158Z,77.50
2024-05-09T00:32:08.751Z,76.71
2024-05-09T00:32:40.308Z,77.26
2024-05-09T00:33:12.161Z,77.53
2024-05-09T00:33:43.871Z,77.24
2024-05-09T00:34:15.431Z,77.60
2024-05-09T00:34:46.959Z,77.70
2024-05-09T00:35:18.394Z,77.75
2024-05-09T00:35:49.873Z,77.43
2024-05-09T00:36:21.294Z,78.12
2024-05-09T00:36:52.682Z,77.62
2024-05-09T00:37:24.108Z,77.34
2024-05-09T00:37:55.588Z,77.84
2024-05-09T00:38:26.727Z,77.92
2024-05-09T00:38:58.124Z,77.90
2024-05-09T00:39:29.452Z,77.86
2024-05-09T00:40:00.805Z,77.56
2024-05-09T00:40:39.440Z,77.36
2024-05-09T00:41:15.156Z,78.35
2024-05-09T00:41:47.685Z,77.54
2024-05-09T00:42:19.071Z,77.74
2024-05-09T00:42:50.441Z,77.44
2024-05-09T00:43:21.801Z,77.83
2024-05-09T00:43:53.225Z,77.84
2024-05-09T00:44:24.730Z,77.94
2024-05-09T00:44:56.226Z,77.99
2024-05-09T00:45:27.578Z,77.51
2024-05-09T00:46:00.887Z,77.70
2024-05-09T00:46:32.275Z,77.03
2024-05-09T00:47:04.040Z,77.52
2024-05-09T00:47:35.872Z,77.16
2024-05-09T00:48:09.734Z,77.50
2024-05-09T00:48:42.139Z,77.84
2024-05-09T00:49:13.824Z,77.63
2024-05-09T00:49:45.396Z,77.14
2024-05-09T00:50:22.945Z,77.57
2024-05-09T00:51:02.119Z,77.01
2024-05-09T00:51:33.634Z,76.84
2024-05-09T00:52:05.919Z,76.08
2024-05-09T00:52:37.708Z,76.01
2024-05-09T00:53:13.724Z,76.06
2024-05-09T00:53:45.023Z,75.74
2024-05-09T00:54:18.703Z,76.06
2024-05-09T00:54:50.061Z,76.02
2024-05-09T00:55:22.798Z,76.40
2024-05-09T00:55:55.646Z,76.75
2024-05-09T00:56:27.337Z,76.07
2024-05-09T00:57:00.986Z,76.02
2024-05-09T00:57:32.436Z,76.52
2024-05-09T00:58:04.450Z,76.08
2024-05-09T00:58:35.887Z,75.57
2024-05-09T00:59:07.662Z,76.15
2024-05-09T00:59:39.699Z,76.19
2024-05-09T01:00:22.389Z,76.03
2024-05-09T01:01:01.947Z,75.91
2024-05-09T01:01:34.002Z,75.71
2024-05-09T01:02:05.847Z,75.40
2024-05-09T01:02:38.221Z,75.97
2024-05-09T01:03:11.865Z,75.53
2024-05-09T01:03:46.635Z,75.41
2024-05-09T01:04:19.623Z,75.09
2024-05-09T01:04:52.184Z,75.01
2024-05-09T01:05:23.652Z,75.09
2024-05-09T01:05:55.129Z,75.62
2024-05-09T01:06:26.619Z,75.30
2024-05-09T01:06:58.041Z,74.00
2024-05-09T01:07:29.504Z,72.79
2024-05-09T01:08:00.874Z,73.25
2024-05-09T01:08:32.498Z,73.81
2024-05-09T01:09:03.954Z,73.46
2024-05-09T01:09:35.287Z,71.62
2024-05-09T01:10:11.760Z,71.81
2024-05-09T01:10:49.072Z,71.83
2024-05-09T01:11:20.580Z,72.03
2024-05-09T01:11:52.070Z,72.07
2024-05-09T01:12:23.842Z,72.38
2024-05-09T01:12:55.302Z,72.49
2024-05-09T01:13:26.667Z,71.44
2024-05-09T01:13:58.081Z,72.26
2024-05-09T01:14:29.598Z,72.20
2024-05-09T01:15:01.107Z,72.27
2024-05-09T01:15:33.496Z,72.89
2024-05-09T01:16:05.033Z,72.97
2024-05-09T01:16:36.737Z,72.34
2024-05-09T01:17:08.245Z,72.57
2024-05-09T01:17:40.189Z,72.21
2024-05-09T01:18:13.283Z,71.45
2024-05-09T01:18:45.437Z,71.28
2024-05-09T01:19:25.659Z,71.77
2024-05-09T01:19:57.158Z,71.70
2024-05-09T01:20:37.539Z,71.94
2024-05-09T01:21:13.480Z,72.51
2024-05-09T01:21:44.697Z,72.42
2024-05-09T01:22:16.094Z,73.25
2024-05-09T01:22:47.723Z,74.17
2024-05-09T01:23:19.180Z,74.57
2024-05-09T01:23:50.585Z,73.83
2024-05-09T01:24:21.953Z,73.57
2024-05-09T01:24:53.364Z,73.09
2024-05-09T01:25:24.703Z,72.95
2024-05-09T01:25:56.121Z,72.90
2024-05-09T01:26:27.622Z,72.42
2024-05-09T01:26:59.054Z,72.59
2024-05-09T01:27:30.560Z,72.52
2024-05-09T01:28:01.901Z,71.88
2024-05-09T01:28:33.240Z,72.55
2024-05-09T01:29:04.688Z,72.95
2024-05-09T01:29:36.167Z,72.28
2024-05-09T01:30:09.677Z,72.22
2024-05-09T01:30:45.838Z,72.10
2024-05-09T01:31:17.234Z,71.99
2024-05-09T01:31:50.592Z,72.18
2024-05-09T01:32:22.360Z,71.22
2024-05-09T01:32:54.055Z,71.38
2024-05-09T01:33:25.995Z,71.48
2024-05-09T01:33:57.652Z,71.21
2024-05-09T01:34:29.079Z,71.49
2024-05-09T01:35:00.517Z,71.94
2024-05-09T01:35:32.059Z,71.72
2024-05-09T01:36:03.546Z,70.99
2024-05-09T01:36:34.974Z,71.45
2024-05-09T01:37:06.370Z,71.82
2024-05-09T01:37:39.245Z,71.63
2024-05-09T01:38:11.992Z,72.46
2024-05-09T01:38:43.413Z,72.33
2024-05-09T01:39:14.914Z,72.15
2024-05-09T01:39:46.257Z,72.13
2024-05-09T01:40:22.134Z,72.13
2024-05-09T01:40:56.862Z,71.29
2024-05-09T01:41:28.403Z,72.02
2024-05-09T01:41:59.971Z,71.84
2024-05-09T01:42:31.331Z,71.74
2024-05-09T01:43:02.702Z,71.72
2024-05-09T01:43:34.038Z,72.16
2024-05-09T01:44:05.451Z,71.64
2024-05-09T01:44:36.986Z,71.81
2024-05-09T01:45:08.798Z,71.25
2024-05-09T01:45:40.631Z,72.10
2024-05-09T01:46:14.189Z,72.00
2024-05-09T01:46:45.643Z,72.75
2024-05-09T01:47:17.224Z,71.86
2024-05-09T01:47:48.844Z,72.00
2024-05-09T01:48:20.482Z,72.57
2024-05-09T01:48:52.093Z,72.77
2024-05-09T01:49:23.548Z,73.02
2024-05-09T01:49:54.903Z,72.74
2024-05-09T01:50:37.144Z,72.97
2024-05-09T01:51:12.156Z,72.37
2024-05-09T01:51:43.703Z,73.16
2024-05-09T01:52:15.078Z,73.08
2024-05-09T01:52:46.530Z,73.32
2024-05-09T01:53:17.760Z,73.15
2024-05-09T01:53:49.032Z,73.55
2024-05-09T01:54:20.169Z,73.69
2024-05-09T01:54:51.613Z,73.52
2024-05-09T01:55:23.020Z,73.37
2024-05-09T01:55:54.378Z,73.05
2024-05-09T01:56:25.532Z,73.28
2024-05-09T01:56:56.895Z,73.67
2024-05-09T01:57:28.315Z,73.08
2024-05-09T01:57:59.693Z,72.85
2024-05-09T01:58:31.030Z,72.84
2024-05-09T01:59:02.518Z,72.37
2024-05-09T01:59:33.981Z,73.01
2024-05-09T02:00:07.650Z,72.63
2024-05-09T02:00:41.942Z,72.54
2024-05-09T02:01:14.331Z,72.93
2024-05-09T02:01:56.436Z,72.41
2024-05-09T02:02:29.288Z,71.22
2024-05-09T02:03:01.013Z,71.47
2024-05-09T02:03:32.742Z,70.64
2024-05-09T02:04:04.656Z,70.42
2024-05-09T02:04:36.266Z,70.96
2024-05-09T02:05:07.870Z,70.44
2024-05-09T02:05:39.484Z,70.66
2024-05-09T02:06:11.263Z,69.92
2024-05-09T02:06:42.926Z,70.77
2024-05-09T02:07:14.612Z,70.27
2024-05-09T02:07:45.962Z,70.02
2024-05-09T02:08:19.460Z,69.14
2024-05-09T02:08:51.144Z,69.51
2024-05-09T02:09:22.613Z,69.20
2024-05-09T02:09:53.937Z,69.42
2024-05-09T02:10:32.049Z,68.93
2024-05-09T02:11:04.661Z,68.99
2024-05-09T02:11:43.102Z,68.84
2024-05-09T02:12:14.693Z,68.32
2024-05-09T02:12:46.230Z,68.17
2024-05-09T02:13:17.653Z,68.12
2024-05-09T02:13:49.058Z,67.34
2024-05-09T02:14:20.472Z,68.18
2024-05-09T02:14:52.060Z,68.05
2024-05-09T02:15:23.213Z,67.55
2024-05-09T02:15:55.201Z,67.11
2024-05-09T02:16:26.599Z,68.20
2024-05-09T02:16:58.100Z,68.59
2024-05-09T02:17:29.622Z,68.10
2024-05-09T02:18:01.439Z,66.78
2024-05-09T02:18:32.706Z,67.86
2024-05-09T02:19:05.183Z,66.55
2024-05-09T02:19:36.674Z,66.33
2024-05-09T02:20:10.719Z,66.19
2024-05-09T02:20:44.944Z,66.68
2024-05-09T02:21:16.409Z,67.19
2024-05-09T02:21:47.781Z,67.27
2024-05-09T02:22:19.163Z,66.81
2024-05-09T02:22:50.624Z,66.72
2024-05-09T02:23:22.051Z,66.47
2024-05-09T02:23:53.522Z,65.34
2024-05-09T02:24:24.913Z,65.33
2024-05-09T02:24:56.288Z,64.75
2024-05-09T02:25:27.667Z,64.95
2024-05-09T02:25:59.128Z,64.05
2024-05-09T02:26:30.350Z,63.52
2024-05-09T02:27:01.755Z,63.88
2024-05-09T02:27:32.934Z,62.94
2024-05-09T02:28:04.668Z,63.81
2024-05-09T02:28:35.802Z,63.23
2024-05-09T02:29:07.204Z,63.99
2024-05-09T02:29:38.644Z,63.10
2024-05-09T02:30:18.619Z,63.25
2024-05-09T02:30:57.351Z,63.76
2024-05-09T02:31:28.767Z,61.28
2024-05-09T02:32:00.290Z,61.75
2024-05-09T02:32:31.970Z,62.09
2024-05-09T02:33:03.706Z,61.21
2024-05-09T02:33:35.364Z,61.83
2024-05-09T02:34:06.945Z,60.76
2024-05-09T02:34:38.550Z,61.53
2024-05-09T02:35:10.236Z,61.50
2024-05-09T02:35:42.791Z,60.47
2024-05-09T02:36:14.898Z,60.85
2024-05-09T02:36:46.073Z,60.02
2024-05-09T02:37:17.462Z,61.02
2024-05-09T02:37:48.620Z,60.75
2024-05-09T02:38:20.156Z,60.31
2024-05-09T02:38:51.618Z,61.12
2024-05-09T02:39:22.994Z,61.42
2024-05-09T02:39:54.415Z,61.54
2024-05-09T02:40:33.743Z,61.14
2024-05-09T02:41:08.981Z,61.45
2024-05-09T02:41:40.120Z,61.48
2024-05-09T02:42:11.616Z,59.99
2024-05-09T02:42:42.739Z,60.36
2024-05-09T02:43:13.851Z,60.55
2024-05-09T02:43:45.257Z,60.71
2024-05-09T02:44:16.637Z,61.07
2024-05-09T02:44:48.000Z,60.65
2024-05-09T02:45:19.389Z,60.61
2024-05-09T02:45:50.773Z,61.13
2024-05-09T02:46:21.896Z,60.95
2024-05-09T02:46:53.256Z,59.53
2024-05-09T02:47:24.846Z,59.51
2024-05-09T02:47:56.249Z,58.33
2024-05-09T02:48:27.920Z,58.22
2024-05-09T02:48:59.428Z,57.16
2024-05-09T02:49:30.920Z,57.29
2024-05-09T02:50:02.397Z,57.53
2024-05-09T02:50:38.392Z,57.16
2024-05-09T02:51:11.624Z,57.26
2024-05-09T02:51:43.058Z,56.22
2024-05-09T02:52:16.980Z,56.63
2024-05-09T02:52:48.139Z,55.78
2024-05-09T02:53:19.550Z,56.22
2024-05-09T02:53:50.982Z,56.59
2024-05-09T02:54:22.364Z,56.40
2024-05-09T02:54:53.499Z,53.91
2024-05-09T02:55:24.603Z,56.24
2024-05-09T02:55:56.021Z,54.42
2024-05-09T02:56:27.555Z,54.40
2024-05-09T02:56:58.951Z,54.34
2024-05-09T02:57:30.288Z,53.81
2024-05-09T02:58:01.661Z,53.77
2024-05-09T02:58:33.124Z,53.57
2024-05-09T02:59:04.630Z,53.70
2024-05-09T02:59:36.034Z,53.41
2024-05-09T03:00:15.022Z,53.33
2024-05-09T03:00:50.204Z,53.65
2024-05-09T03:01:21.607Z,54.36
2024-05-09T03:01:53.019Z,54.48
2024-05-09T03:02:25.915Z,54.28
2024-05-09T03:02:57.559Z,54.35
2024-05-09T03:03:29.267Z,52.84
2024-05-09T03:04:00.778Z,53.67
2024-05-09T03:04:32.428Z,52.45
2024-05-09T03:05:04.191Z,52.91
2024-05-09T03:05:35.810Z,52.55
2024-05-09T03:06:07.205Z,52.59
2024-05-09T03:06:42.256Z,53.37
2024-05-09T03:07:13.668Z,52.32
2024-05-09T03:07:45.072Z,52.36
2024-05-09T03:08:16.532Z,52.31
2024-05-09T03:08:48.025Z,51.95
2024-05-09T03:09:20.440Z,52.47
2024-05-09T03:09:51.858Z,51.97
2024-05-09T03:10:28.357Z,53.90
2024-05-09T03:11:00.434Z,51.43
2024-05-09T03:11:31.934Z,52.24
2024-05-09T03:12:03.679Z,51.53
2024-05-09T03:12:37.873Z,51.85
2024-05-09T03:13:12.548Z,52.46
2024-05-09T03:13:45.054Z,52.14
2024-05-09T03:14:18.415Z,51.41
2024-05-09T03:14:49.767Z,52.64
2024-05-09T03:15:21.651Z,51.56
2024-05-09T03:15:53.044Z,51.69
2024-05-09T03:16:24.620Z,52.08
2024-05-09T03:16:55.869Z,52.90
2024-05-09T03:17:27.481Z,51.38
2024-05-09T03:17:59.956Z,52.65
2024-05-09T03:18:31.602Z,52.86
2024-05-09T03:19:03.129Z,51.78
2024-05-09T03:19:35.615Z,51.23
2024-05-09T03:20:17.019Z,52.11
2024-05-09T03:20:52.025Z,51.04
2024-05-09T03:21:23.432Z,51.95
2024-05-09T03:21:54.813Z,51.14
2024-05-09T03:22:26.990Z,51.35
2024-05-09T03:22:58.395Z,51.57
2024-05-09T03:23:29.567Z,52.64
2024-05-09T03:24:00.687Z,52.63
2024-05-09T03:24:32.061Z,51.49
2024-05-09T03:25:03.829Z,51.64
2024-05-09T03:25:35.179Z,51.42
2024-05-09T03:26:14.000Z,51.01
2024-05-09T03:26:45.928Z,51.52
2024-05-09T03:27:17.367Z,50.93
2024-05-09T03:27:48.754Z,51.54
2024-05-09T03:28:20.090Z,52.04
2024-05-09T03:28:51.520Z,51.78
2024-05-09T03:29:22.972Z,51.55
2024-05-09T03:29:54.383Z,50.40
2024-05-09T03:30:36.024Z,51.06
2024-05-09T03:31:12.478Z,50.71
2024-05-09T03:31:44.096Z,49.92
2024-05-09T03:32:15.414Z,50.37
2024-05-09T03:32:47.096Z,50.86
2024-05-09T03:33:20.132Z,50.93
2024-05-09T03:33:52.506Z,50.99
2024-05-09T03:34:24.068Z,51.11
2024-05-09T03:34:55.496Z,50.54
2024-05-09T03:35:26.943Z,49.92
2024-05-09T03:35:58.392Z,49.64
2024-05-09T03:36:29.772Z,50.29
2024-05-09T03:37:00.917Z,50.31
2024-05-09T03:37:32.287Z,51.41
2024-05-09T03:38:03.949Z,50.97
2024-05-09T03:38:39.074Z,51.82
2024-05-09T03:39:10.923Z,50.48
2024-05-09T03:39:42.312Z,50.21
2024-05-09T03:40:20.725Z,50.10
2024-05-09T03:40:55.243Z,49.88
2024-05-09T03:41:26.725Z,50.70
2024-05-09T03:41:58.224Z,50.38
2024-05-09T03:42:29.556Z,50.62
2024-05-09T03:43:00.646Z,49.73
2024-05-09T03:43:32.038Z,50.46
2024-05-09T03:44:03.951Z,49.70
2024-05-09T03:44:35.393Z,50.82
2024-05-09T03:45:07.156Z,50.10
2024-05-09T03:45:38.592Z,49.76
2024-05-09T03:46:09.965Z,50.74
2024-05-09T03:46:41.305Z,50.29
2024-05-09T03:47:12.472Z,50.10
2024-05-09T03:47:44.111Z,50.18
2024-05-09T03:48:16.120Z,50.42
2024-05-09T03:48:47.729Z,50.00
2024-05-09T03:49:19.518Z,49.10
2024-05-09T03:49:51.026Z,49.77
2024-05-09T03:50:29.822Z,49.56
2024-05-09T03:51:06.065Z,50.02
2024-05-09T03:51:37.394Z,49.59
2024-05-09T03:52:08.754Z,49.20
2024-05-09T03:52:40.120Z,48.90
2024-05-09T03:53:13.133Z,49.47
2024-05-09T03:53:44.655Z,49.02
2024-05-09T03:54:16.011Z,49.41
2024-05-09T03:54:47.348Z,48.16
2024-05-09T03:55:18.751Z,47.64
2024-05-09T03:55:50.153Z,48.25
2024-05-09T03:56:21.327Z,49.17
2024-05-09T03:56:53.334Z,48.57
2024-05-09T03:57:24.693Z,48.57
2024-05-09T03:57:56.277Z,48.64
2024-05-09T03:58:27.579Z,48.95
2024-05-09T03:58:58.961Z,48.47
2024-05-09T03:59:30.402Z,47.53
2024-05-09T04:00:02.816Z,48.64
2024-05-09T04:00:38.472Z,48.16
2024-05-09T04:01:11.411Z,48.93
2024-05-09T04:01:43.177Z,48.38
2024-05-09T04:02:14.703Z,48.33
2024-05-09T04:02:47.039Z,47.91
2024-05-09T04:03:18.926Z,48.51
2024-05-09T04:03:51.217Z,48.18
2024-05-09T04:04:22.732Z,48.42
2024-05-09T04:04:54.187Z,49.19
2024-05-09T04:05:25.950Z,49.19
2024-05-09T04:05:57.498Z,48.62
2024-05-09T04:06:28.841Z,49.02
2024-05-09T04:06:59.937Z,49.10
2024-05-09T04:07:32.219Z,49.29
2024-05-09T04:08:03.985Z,49.35
2024-05-09T04:08:35.752Z,48.52
2024-05-09T04:09:07.219Z,48.77
2024-05-09T04:09:38.588Z,49.64
2024-05-09T04:10:17.017Z,49.29
2024-05-09T04:10:55.318Z,48.97
2024-05-09T04:11:26.882Z,49.01
2024-05-09T04:11:58.523Z,49.01
2024-05-09T04:12:30.005Z,48.92
2024-05-09T04:13:02.482Z,49.22
2024-05-09T04:13:34.164Z,48.93
2024-05-09T04:14:05.270Z,49.46
2024-05-09T04:14:36.732Z,50.33
2024-05-09T04:15:11.190Z,49.43
2024-05-09T04:15:44.142Z,50.13
2024-05-09T04:16:15.552Z,49.55
2024-05-09T04:16:46.934Z,49.65
2024-05-09T04:17:18.108Z,48.59
2024-05-09T04:17:50.408Z,49.67
2024-05-09T04:18:21.695Z,50.32
2024-05-09T04:18:52.945Z,49.79
2024-05-09T04:19:24.501Z,49.96
2024-05-09T04:19:56.046Z,50.11
2024-05-09T04:20:36.525Z,49.88
2024-05-09T04:21:10.766Z,49.20
2024-05-09T04:21:42.341Z,50.22
2024-05-09T04:22:13.706Z,49.92
2024-05-09T04:22:45.186Z,49.33
2024-05-09T04:23:16.653Z,49.72
2024-05-09T04:23:48.101Z,49.00
2024-05-09T04:24:19.524Z,48.69
2024-05-09T04:24:51.822Z,48.97
2024-05-09T04:25:23.181Z,49.11
2024-05-09T04:25:54.793Z,49.32
2024-05-09T04:26:26.277Z,47.81
2024-05-09T04:26:57.569Z,48.24
2024-05-09T04:27:28.957Z,47.83
2024-05-09T04:28:00.136Z,48.49
2024-05-09T04:28:31.243Z,49.04
2024-05-09T04:29:02.686Z,48.16
2024-05-09T04:29:37.030Z,49.11
2024-05-09T04:30:15.449Z,48.51
2024-05-09T04:30:53.090Z,47.87
2024-05-09T04:31:24.216Z,47.90
2024-05-09T04:31:55.618Z,48.88
2024-05-09T04:32:27.235Z,47.99
2024-05-09T04:32:58.814Z,48.21
2024-05-09T04:33:30.561Z,47.25
2024-05-09T04:34:03.687Z,47.47
2024-05-09T04:34:35.685Z,47.56
2024-05-09T04:35:06.868Z,48.00
2024-05-09T04:35:38.403Z,47.85
2024-05-09T04:36:10.145Z,47.65
2024-05-09T04:36:43.958Z,47.90
2024-05-09T04:37:16.149Z,47.65
2024-05-09T04:37:48.131Z,47.26
2024-05-09T04:38:19.554Z,47.10
2024-05-09T04:38:50.998Z,47.36
2024-05-09T04:39:22.389Z,47.29
2024-05-09T04:39:54.003Z,47.47
2024-05-09T04:40:32.864Z,47.25
2024-05-09T04:41:07.059Z,47.55
2024-05-09T04:41:38.568Z,46.63
2024-05-09T04:42:09.667Z,46.50
2024-05-09T04:42:41.044Z,47.61
2024-05-09T04:43:18.248Z,46.96
2024-05-09T04:43:49.837Z,46.59
2024-05-09T04:44:21.280Z,46.33
2024-05-09T04:44:55.607Z,46.72
2024-05-09T04:45:28.932Z,45.93
2024-05-09T04:46:00.444Z,46.95
2024-05-09T04:46:31.781Z,47.34
2024-05-09T04:47:03.378Z,46.73
2024-05-09T04:47:34.897Z,46.09
2024-05-09T04:48:07.000Z,46.80
2024-05-09T04:48:38.591Z,47.00
2024-05-09T04:49:09.890Z,46.84
2024-05-09T04:49:41.536Z,46.27
2024-05-09T04:50:21.151Z,45.53
2024-05-09T04:51:01.529Z,46.21
2024-05-09T04:51:34.461Z,45.92
2024-05-09T04:52:05.626Z,45.61
2024-05-09T04:52:36.974Z,45.37
2024-05-09T04:53:09.906Z,46.50
2024-05-09T04:53:42.698Z,45.77
2024-05-09T04:54:26.013Z,46.39
2024-05-09T04:55:05.440Z,46.15
2024-05-09T04:55:36.996Z,46.19
2024-05-09T04:56:08.578Z,45.08
2024-05-09T04:56:40.035Z,45.95
2024-05-09T04:57:11.554Z,44.85
2024-05-09T04:57:42.950Z,45.16
2024-05-09T04:58:14.298Z,45.27
2024-05-09T04:58:45.500Z,45.29
2024-05-09T04:59:16.875Z,44.86
2024-05-09T04:59:48.314Z,45.21
2024-05-09T05:00:28.612Z,44.76
2024-05-09T05:01:06.461Z,46.86
2024-05-09T05:01:37.875Z,45.64
2024-05-09T05:02:09.193Z,44.99
2024-05-09T05:02:40.713Z,45.35
2024-05-09T05:03:14.808Z,45.97
2024-05-09T05:03:47.641Z,46.36
2024-05-09T05:04:19.185Z,46.05
2024-05-09T05:04:50.665Z,46.20
2024-05-09T05:05:22.173Z,46.17
2024-05-09T05:05:53.608Z,45.55
2024-05-09T05:06:25.047Z,45.12
2024-05-09T05:06:58.366Z,45.65
2024-05-09T05:07:31.084Z,45.94
2024-05-09T05:08:02.487Z,45.41
2024-05-09T05:08:34.101Z,44.78
2024-05-09T05:09:05.564Z,45.09
2024-05-09T05:09:36.927Z,45.10
2024-05-09T05:10:43.303Z,44.78
2024-05-09T05:11:14.994Z,45.32
2024-05-09T05:11:46.579Z,45.02
2024-05-09T05:12:36.489Z,44.85
2024-05-09T05:13:15.391Z,44.77
2024-05-09T05:13:46.779Z,45.12
2024-05-09T05:14:18.263Z,45.31
2024-05-09T05:14:49.684Z,44.75
2024-05-09T05:15:21.495Z,45.42
2024-05-09T05:15:54.704Z,45.48
2024-05-09T05:16:26.091Z,45.16
2024-05-09T05:16:57.528Z,43.95
2024-05-09T05:17:29.166Z,44.24
2024-05-09T05:18:00.872Z,43.52
2024-05-09T05:18:32.684Z,44.45
2024-05-09T05:19:05.312Z,43.67
2024-05-09T05:19:38.883Z,43.84
2024-05-09T05:20:12.653Z,43.65
2024-05-09T05:20:46.819Z,43.75
2024-05-09T05:21:18.412Z,43.87
2024-05-09T05:21:49.838Z,43.83
2024-05-09T05:22:21.215Z,43.35
2024-05-09T05:22:52.637Z,42.93
2024-05-09T05:23:24.221Z,43.28
2024-05-09T05:23:55.727Z,43.37
2024-05-09T05:24:27.138Z,42.59
2024-05-09T05:24:58.460Z,43.22
2024-05-09T05:25:29.788Z,42.92
2024-05-09T05:26:01.218Z,42.98
2024-05-09T05:26:33.344Z,43.40
2024-05-09T05:27:04.970Z,43.15
2024-05-09T05:27:37.320Z,43.69
2024-05-09T05:28:09.254Z,43.47
2024-05-09T05:28:40.741Z,43.00
2024-05-09T05:29:12.151Z,43.32
2024-05-09T05:29:43.612Z,42.96
2024-05-09T05:30:21.251Z,43.75
2024-05-09T05:30:56.478Z,42.73
2024-05-09T05:31:27.629Z,42.79
2024-05-09T05:31:59.174Z,43.46
2024-05-09T05:32:30.919Z,42.80
2024-05-09T05:33:04.465Z,43.35
2024-05-09T05:33:35.977Z,42.82
2024-05-09T05:34:07.635Z,42.60
2024-05-09T05:34:39.077Z,42.47
2024-05-09T05:35:10.676Z,43.00
2024-05-09T05:35:42.368Z,42.50
2024-05-09T05:36:13.814Z,42.79
2024-05-09T05:36:45.229Z,43.32
2024-05-09T05:37:16.615Z,44.42
2024-05-09T05:37:48.016Z,46.63
2024-05-09T05:38:21.401Z,45.11
2024-05-09T05:38:54.375Z,45.43
2024-05-09T05:39:25.785Z,44.84
2024-05-09T05:39:57.230Z,44.80
2024-05-09T05:40:36.232Z,44.87
2024-05-09T05:41:09.477Z,43.88
2024-05-09T05:41:40.977Z,41.91
2024-05-09T05:42:12.553Z,42.87
2024-05-09T05:42:43.937Z,42.85
2024-05-09T05:43:16.848Z,42.83
2024-05-09T05:43:48.287Z,42.71
2024-05-09T05:44:19.740Z,42.66
2024-05-09T05:44:51.127Z,42.45
2024-05-09T05:45:22.479Z,43.02
2024-05-09T05:45:53.894Z,43.07
2024-05-09T05:46:25.252Z,43.43
2024-05-09T05:46:56.700Z,42.86
2024-05-09T05:47:28.302Z,42.68
2024-05-09T05:48:03.001Z,42.96
2024-05-09T05:48:34.766Z,42.56
2024-05-09T05:49:06.056Z,42.90
2024-05-09T05:49:37.651Z,42.87
2024-05-09T05:50:20.642Z,42.39
2024-05-09T05:51:01.139Z,41.82
2024-05-09T05:51:34.146Z,42.63
2024-05-09T05:52:05.699Z,42.27
2024-05-09T05:52:37.078Z,42.23
2024-05-09T05:53:09.755Z,42.33
2024-05-09T05:53:41.764Z,42.88
2024-05-09T05:54:13.209Z,42.51
2024-05-09T05:54:47.379Z,42.14
2024-05-09T05:55:18.789Z,42.10
2024-05-09T05:55:50.267Z,42.23
2024-05-09T05:56:21.684Z,41.92
2024-05-09T05:56:53.136Z,42.56
2024-05-09T05:57:24.549Z,41.78
2024-05-09T05:57:56.008Z,41.90
2024-05-09T05:58:27.420Z,42.03
2024-05-09T05:58:58.877Z,42.30
2024-05-09T05:59:30.362Z,42.76
2024-05-09T06:00:01.581Z,42.46
2024-05-09T06:00:38.758Z,42.52
2024-05-09T06:01:12.086Z,42.28
2024-05-09T06:01:43.629Z,43.03
2024-05-09T06:02:15.221Z,42.71
2024-05-09T06:02:46.922Z,42.61
2024-05-09T06:03:18.495Z,42.78
2024-05-09T06:03:50.132Z,42.04
2024-05-09T06:04:21.764Z,41.72
2024-05-09T06:04:53.274Z,42.77
2024-05-09T06:05:27.606Z,42.63
2024-05-09T06:06:01.815Z,42.00
2024-05-09T06:06:33.221Z,42.42
2024-05-09T06:07:04.747Z,41.81
2024-05-09T06:07:36.148Z,41.98
2024-05-09T06:08:07.754Z,41.81
2024-05-09T06:08:39.299Z,42.05
2024-05-09T06:09:10.686Z,42.10
2024-05-09T06:09:41.816Z,42.33
2024-05-09T06:10:20.949Z,42.77
2024-05-09T06:10:53.217Z,42.76
2024-05-09T06:11:24.802Z,42.75
2024-05-09T06:11:56.296Z,42.84
2024-05-09T06:12:27.836Z,42.80
2024-05-09T06:12:59.292Z,42.82
2024-05-09T06:13:30.669Z,42.30
2024-05-09T06:14:04.243Z,42.13
2024-05-09T06:14:35.764Z,42.31
2024-05-09T06:15:07.233Z,41.65
2024-05-09T06:15:39.360Z,42.37
2024-05-09T06:16:10.722Z,42.73
2024-05-09T06:16:42.410Z,42.68
2024-05-09T06:17:13.919Z,42.92
2024-05-09T06:17:45.621Z,42.17
2024-05-09T06:18:17.544Z,41.79
2024-05-09T06:18:49.436Z,41.84
2024-05-09T06:19:21.080Z,42.37
2024-05-09T06:19:52.806Z,41.83
2024-05-09T06:20:33.888Z,42.12
2024-05-09T06:21:08.001Z,42.75
2024-05-09T06:21:39.398Z,41.98
2024-05-09T06:22:10.795Z,42.62
2024-05-09T06:22:42.178Z,42.46
2024-05-09T06:23:13.799Z,41.97
2024-05-09T06:23:46.133Z,40.99
2024-05-09T06:24:17.566Z,41.52
2024-05-09T06:24:48.938Z,41.70
2024-05-09T06:25:20.311Z,41.92
2024-05-09T06:25:51.813Z,42.19
2024-05-09T06:26:23.296Z,42.02
2024-05-09T06:26:54.752Z,42.50
2024-05-09T06:27:26.154Z,42.45
2024-05-09T06:27:59.225Z,42.34
2024-05-09T06:28:30.646Z,41.84
2024-05-09T06:29:02.079Z,41.25
2024-05-09T06:29:37.250Z,41.19
2024-05-09T06:30:14.402Z,41.75
2024-05-09T06:30:52.029Z,41.85
2024-05-09T06:31:23.605Z,41.55
2024-05-09T06:31:57.186Z,41.34
2024-05-09T06:32:31.025Z,41.82
2024-05-09T06:33:06.488Z,41.31
2024-05-09T06:33:38.024Z,41.73
2024-05-09T06:34:09.787Z,41.72
2024-05-09T06:34:42.017Z,41.44
2024-05-09T06:35:13.265Z,41.06
2024-05-09T06:35:45.278Z,41.65
2024-05-09T06:36:16.674Z,40.75
2024-05-09T06:36:48.039Z,41.09
2024-05-09T06:37:19.432Z,41.30
2024-05-09T06:37:50.886Z,40.96
2024-05-09T06:38:22.303Z,41.32
2024-05-09T06:38:53.725Z,41.37
2024-05-09T06:39:24.854Z,41.26
2024-05-09T06:39:56.345Z,41.12
2024-05-09T06:40:36.276Z,41.40
2024-05-09T06:41:10.298Z,41.35
2024-05-09T06:41:41.803Z,40.98
2024-05-09T06:42:13.282Z,41.15
2024-05-09T06:42:44.633Z,40.72
2024-05-09T06:43:18.464Z,40.97
2024-05-09T06:43:51.049Z,40.87
2024-05-09T06:44:22.543Z,41.01
2024-05-09T06:44:54.041Z,40.97
2024-05-09T06:45:25.402Z,40.73
2024-05-09T06:45:56.764Z,40.86
2024-05-09T06:46:28.385Z,41.21
2024-05-09T06:47:00.274Z,41.58
2024-05-09T06:47:31.973Z,40.99
2024-05-09T06:48:03.934Z,40.63
2024-05-09T06:48:35.614Z,41.24
2024-05-09T06:49:08.673Z,40.86
2024-05-09T06:49:40.546Z,41.24
2024-05-09T06:50:20.213Z,40.87
2024-05-09T06:50:55.450Z,40.95
2024-05-09T06:51:26.840Z,40.99
2024-05-09T06:51:58.224Z,41.55
2024-05-09T06:52:29.630Z,40.83
2024-05-09T06:53:01.081Z,41.23
2024-05-09T06:53:32.721Z,40.88
2024-05-09T06:54:08.079Z,40.73
2024-05-09T06:54:39.452Z,41.23
2024-05-09T06:55:10.862Z,40.70
2024-05-09T06:55:42.404Z,40.75
2024-05-09T06:56:13.823Z,41.64
2024-05-09T06:56:45.254Z,40.96
2024-05-09T06:57:16.703Z,41.39
2024-05-09T06:57:48.156Z,41.03